Terminal Aerodrome Forecast
Issued by NWS Sterling, VA

Current Version | Previous Version | Text Only | Print | Product List | Glossary On
Versions: 1 2 3 4 5 6 7 8 9 10 11 12 13 14 15 16 17 18 19 20 21 22 23
406
FTUS41 KLWX 142103 AAA
TAFIAD
TAF AMD
KIAD 142103Z 1421/1524 17005KT 3SM -RA OVC008
     FM150000 15004KT 1SM -RA BR OVC008
     FM150600 VRB03KT 3SM BR OVC008
     FM150900 34005KT P6SM SCT008 BKN040
     FM151200 34008KT P6SM SCT150
     FM152200 36004KT P6SM SCT120=

USA.gov is the U.S. government's official web portal to all federal, state and local government web resources and services.